sensor_id;sensor_type;location;lat;lon;timestamp;P1;durP1;ratioP1;P2;durP2;ratioP2
48375;SDS011;34178;50.904;11.560;2023-08-21T00:01:27;32.65;;;26.98;;
48375;SDS011;34178;50.904;11.560;2023-08-21T00:03:53;31.08;;;27.75;;
48375;SDS011;34178;50.904;11.560;2023-08-21T00:06:19;31.52;;;28.23;;
48375;SDS011;34178;50.904;11.560;2023-08-21T00:08:44;29.45;;;25.75;;
48375;SDS011;34178;50.904;11.560;2023-08-21T00:11:10;33.20;;;28.15;;
48375;SDS011;34178;50.904;11.560;2023-08-21T00:13:36;30.40;;;27.20;;
48375;SDS011;34178;50.904;11.560;2023-08-21T00:16:01;31.05;;;27.55;;
48375;SDS011;34178;50.904;11.560;2023-08-21T00:18:27;33.03;;;29.20;;
48375;SDS011;34178;50.904;11.560;2023-08-21T00:20:52;32.65;;;29.02;;
48375;SDS011;34178;50.904;11.560;2023-08-21T00:23:18;31.95;;;28.42;;
48375;SDS011;34178;50.904;11.560;2023-08-21T00:25:47;33.42;;;28.70;;
48375;SDS011;34178;50.904;11.560;2023-08-21T00:28:13;35.60;;;28.17;;
48375;SDS011;34178;50.904;11.560;2023-08-21T00:30:39;32.45;;;27.98;;
48375;SDS011;34178;50.904;11.560;2023-08-21T00:33:05;34.60;;;29.15;;
48375;SDS011;34178;50.904;11.560;2023-08-21T00:35:30;33.30;;;29.73;;
48375;SDS011;34178;50.904;11.560;2023-08-21T00:37:56;34.33;;;28.83;;
48375;SDS011;34178;50.904;11.560;2023-08-21T00:40:22;35.65;;;28.65;;
48375;SDS011;34178;50.904;11.560;2023-08-21T00:42:47;37.70;;;29.27;;
48375;SDS011;34178;50.904;11.560;2023-08-21T00:45:13;32.92;;;28.85;;
48375;SDS011;34178;50.904;11.560;2023-08-21T00:47:39;32.55;;;29.02;;
48375;SDS011;34178;50.904;11.560;2023-08-21T00:50:05;34.63;;;30.02;;
48375;SDS011;34178;50.904;11.560;2023-08-21T00:52:33;35.63;;;29.50;;
48375;SDS011;34178;50.904;11.560;2023-08-21T00:54:59;33.65;;;28.42;;
48375;SDS011;34178;50.904;11.560;2023-08-21T00:57:25;33.75;;;29.25;;
48375;SDS011;34178;50.904;11.560;2023-08-21T00:59:51;35.35;;;29.13;;
48375;SDS011;34178;50.904;11.560;2023-08-21T01:02:18;32.53;;;29.05;;
48375;SDS011;34178;50.904;11.560;2023-08-21T01:04:44;33.60;;;29.00;;
48375;SDS011;34178;50.904;11.560;2023-08-21T01:07:10;35.90;;;28.85;;
48375;SDS011;34178;50.904;11.560;2023-08-21T01:17:23;34.20;;;28.90;;
48375;SDS011;34178;50.904;11.560;2023-08-21T01:19:50;31.75;;;28.30;;
48375;SDS011;34178;50.904;11.560;2023-08-21T01:22:17;34.20;;;27.90;;
48375;SDS011;34178;50.904;11.560;2023-08-21T01:24:43;34.42;;;28.63;;
48375;SDS011;34178;50.904;11.560;2023-08-21T01:27:09;32.35;;;28.90;;
48375;SDS011;34178;50.904;11.560;2023-08-21T01:29:37;34.22;;;28.10;;
48375;SDS011;34178;50.904;11.560;2023-08-21T01:34:43;31.58;;;26.75;;
48375;SDS011;34178;50.904;11.560;2023-08-21T01:37:10;30.25;;;27.05;;
48375;SDS011;34178;50.904;11.560;2023-08-21T01:39:36;31.45;;;28.02;;
48375;SDS011;34178;50.904;11.560;2023-08-21T01:42:02;33.58;;;28.20;;
48375;SDS011;34178;50.904;11.560;2023-08-21T01:44:27;32.03;;;27.13;;
48375;SDS011;34178;50.904;11.560;2023-08-21T01:46:53;30.73;;;27.42;;
48375;SDS011;34178;50.904;11.560;2023-08-21T01:49:19;34.17;;;28.98;;
48375;SDS011;34178;50.904;11.560;2023-08-21T01:51:45;34.55;;;28.27;;
48375;SDS011;34178;50.904;11.560;2023-08-21T01:54:11;36.55;;;29.20;;
48375;SDS011;34178;50.904;11.560;2023-08-21T01:56:36;38.15;;;30.77;;
48375;SDS011;34178;50.904;11.560;2023-08-21T01:59:04;32.30;;;27.80;;
48375;SDS011;34178;50.904;11.560;2023-08-21T02:01:31;34.05;;;30.33;;
48375;SDS011;34178;50.904;11.560;2023-08-21T02:03:57;34.00;;;29.45;;
48375;SDS011;34178;50.904;11.560;2023-08-21T02:06:22;32.70;;;29.10;;
48375;SDS011;34178;50.904;11.560;2023-08-21T02:08:48;32.97;;;28.30;;
48375;SDS011;34178;50.904;11.560;2023-08-21T02:11:14;34.65;;;30.65;;
48375;SDS011;34178;50.904;11.560;2023-08-21T02:13:39;36.92;;;30.00;;
48375;SDS011;34178;50.904;11.560;2023-08-21T02:16:05;36.15;;;30.60;;
48375;SDS011;34178;50.904;11.560;2023-08-21T02:18:31;36.63;;;31.48;;
48375;SDS011;34178;50.904;11.560;2023-08-21T02:20:56;37.20;;;32.10;;
48375;SDS011;34178;50.904;11.560;2023-08-21T02:23:22;35.75;;;31.58;;
48375;SDS011;34178;50.904;11.560;2023-08-21T02:25:49;36.00;;;29.75;;
48375;SDS011;34178;50.904;11.560;2023-08-21T02:28:15;34.10;;;29.35;;
48375;SDS011;34178;50.904;11.560;2023-08-21T02:30:40;36.55;;;30.95;;
48375;SDS011;34178;50.904;11.560;2023-08-21T02:33:07;35.65;;;29.45;;
48375;SDS011;34178;50.904;11.560;2023-08-21T02:35:32;38.58;;;30.40;;
48375;SDS011;34178;50.904;11.560;2023-08-21T02:37:58;37.15;;;29.35;;
48375;SDS011;34178;50.904;11.560;2023-08-21T02:43:46;34.92;;;28.77;;
48375;SDS011;34178;50.904;11.560;2023-08-21T02:46:11;31.75;;;26.92;;
48375;SDS011;34178;50.904;11.560;2023-08-21T02:48:37;32.58;;;27.73;;
48375;SDS011;34178;50.904;11.560;2023-08-21T02:51:02;33.00;;;27.55;;
48375;SDS011;34178;50.904;11.560;2023-08-21T02:53:28;33.05;;;28.33;;
48375;SDS011;34178;50.904;11.560;2023-08-21T02:55:54;36.55;;;30.27;;
48375;SDS011;34178;50.904;11.560;2023-08-21T02:58:20;34.88;;;29.08;;
48375;SDS011;34178;50.904;11.560;2023-08-21T03:00:45;31.77;;;28.42;;
48375;SDS011;34178;50.904;11.560;2023-08-21T03:03:11;32.97;;;29.13;;
48375;SDS011;34178;50.904;11.560;2023-08-21T03:05:37;34.33;;;28.45;;
48375;SDS011;34178;50.904;11.560;2023-08-21T03:08:02;36.95;;;28.27;;
48375;SDS011;34178;50.904;11.560;2023-08-21T03:10:28;33.67;;;28.85;;
48375;SDS011;34178;50.904;11.560;2023-08-21T03:12:58;35.28;;;29.80;;
48375;SDS011;34178;50.904;11.560;2023-08-21T03:15:24;34.63;;;28.95;;
48375;SDS011;34178;50.904;11.560;2023-08-21T03:17:50;33.47;;;28.70;;
48375;SDS011;34178;50.904;11.560;2023-08-21T03:20:15;36.35;;;29.35;;
48375;SDS011;34178;50.904;11.560;2023-08-21T03:22:42;32.72;;;28.08;;
48375;SDS011;34178;50.904;11.560;2023-08-21T03:25:08;40.55;;;29.77;;
48375;SDS011;34178;50.904;11.560;2023-08-21T03:27:34;39.00;;;30.13;;
48375;SDS011;34178;50.904;11.560;2023-08-21T03:30:04;35.15;;;28.90;;
48375;SDS011;34178;50.904;11.560;2023-08-21T03:32:31;32.90;;;27.13;;
48375;SDS011;34178;50.904;11.560;2023-08-21T03:34:57;35.65;;;27.58;;
48375;SDS011;34178;50.904;11.560;2023-08-21T03:37:23;31.63;;;27.63;;
48375;SDS011;34178;50.904;11.560;2023-08-21T03:39:49;31.15;;;26.45;;
48375;SDS011;34178;50.904;11.560;2023-08-21T03:42:15;34.35;;;27.65;;
48375;SDS011;34178;50.904;11.560;2023-08-21T03:44:40;32.30;;;28.15;;
48375;SDS011;34178;50.904;11.560;2023-08-21T03:47:06;34.63;;;28.95;;
48375;SDS011;34178;50.904;11.560;2023-08-21T03:49:32;30.67;;;26.27;;
48375;SDS011;34178;50.904;11.560;2023-08-21T03:51:57;34.58;;;26.80;;
48375;SDS011;34178;50.904;11.560;2023-08-21T03:54:23;34.03;;;27.33;;
48375;SDS011;34178;50.904;11.560;2023-08-21T03:56:48;36.05;;;28.38;;
48375;SDS011;34178;50.904;11.560;2023-08-21T03:59:14;34.60;;;26.20;;
48375;SDS011;34178;50.904;11.560;2023-08-21T04:01:40;30.83;;;27.27;;
48375;SDS011;34178;50.904;11.560;2023-08-21T04:04:05;32.70;;;26.48;;
48375;SDS011;34178;50.904;11.560;2023-08-21T04:06:31;31.13;;;25.75;;
48375;SDS011;34178;50.904;11.560;2023-08-21T04:08:56;29.15;;;25.10;;
48375;SDS011;34178;50.904;11.560;2023-08-21T04:11:22;29.23;;;25.98;;
48375;SDS011;34178;50.904;11.560;2023-08-21T04:13:48;30.30;;;26.17;;
48375;SDS011;34178;50.904;11.560;2023-08-21T04:16:13;30.95;;;26.45;;
48375;SDS011;34178;50.904;11.560;2023-08-21T04:18:39;43.20;;;29.65;;
48375;SDS011;34178;50.904;11.560;2023-08-21T04:21:05;36.70;;;28.52;;
48375;SDS011;34178;50.904;11.560;2023-08-21T04:23:31;36.45;;;27.70;;
48375;SDS011;34178;50.904;11.560;2023-08-21T04:26:03;37.17;;;29.50;;
48375;SDS011;34178;50.904;11.560;2023-08-21T04:28:30;39.08;;;29.60;;
48375;SDS011;34178;50.904;11.560;2023-08-21T04:30:56;32.60;;;27.27;;
48375;SDS011;34178;50.904;11.560;2023-08-21T04:33:23;32.95;;;27.05;;
48375;SDS011;34178;50.904;11.560;2023-08-21T04:38:18;33.13;;;26.33;;
48375;SDS011;34178;50.904;11.560;2023-08-21T04:40:44;33.78;;;26.25;;
48375;SDS011;34178;50.904;11.560;2023-08-21T04:43:10;32.35;;;25.70;;
48375;SDS011;34178;50.904;11.560;2023-08-21T04:45:35;33.28;;;25.83;;
48375;SDS011;34178;50.904;11.560;2023-08-21T04:48:03;32.35;;;26.25;;
48375;SDS011;34178;50.904;11.560;2023-08-21T04:50:29;35.05;;;26.95;;
48375;SDS011;34178;50.904;11.560;2023-08-21T04:52:55;31.08;;;24.75;;
48375;SDS011;34178;50.904;11.560;2023-08-21T04:55:21;34.22;;;28.25;;
48375;SDS011;34178;50.904;11.560;2023-08-21T04:57:47;40.17;;;29.58;;
48375;SDS011;34178;50.904;11.560;2023-08-21T05:00:13;37.35;;;30.73;;
48375;SDS011;34178;50.904;11.560;2023-08-21T05:02:40;41.80;;;31.05;;
48375;SDS011;34178;50.904;11.560;2023-08-21T05:05:06;40.22;;;29.83;;
48375;SDS011;34178;50.904;11.560;2023-08-21T05:07:31;46.75;;;35.22;;
48375;SDS011;34178;50.904;11.560;2023-08-21T05:10:01;52.10;;;36.03;;
48375;SDS011;34178;50.904;11.560;2023-08-21T05:12:27;54.35;;;38.45;;
48375;SDS011;34178;50.904;11.560;2023-08-21T05:14:53;66.00;;;40.30;;
48375;SDS011;34178;50.904;11.560;2023-08-21T05:17:19;94.93;;;39.63;;
48375;SDS011;34178;50.904;11.560;2023-08-21T05:19:44;91.40;;;39.40;;
48375;SDS011;34178;50.904;11.560;2023-08-21T05:22:10;76.03;;;39.33;;
48375;SDS011;34178;50.904;11.560;2023-08-21T05:24:36;97.57;;;41.05;;
48375;SDS011;34178;50.904;11.560;2023-08-21T05:27:01;70.68;;;40.72;;
48375;SDS011;34178;50.904;11.560;2023-08-21T05:29:27;72.93;;;44.10;;
48375;SDS011;34178;50.904;11.560;2023-08-21T05:31:53;85.30;;;43.40;;
48375;SDS011;34178;50.904;11.560;2023-08-21T05:34:18;66.90;;;43.42;;
48375;SDS011;34178;50.904;11.560;2023-08-21T05:36:44;78.05;;;42.53;;
48375;SDS011;34178;50.904;11.560;2023-08-21T05:39:09;60.80;;;41.20;;
48375;SDS011;34178;50.904;11.560;2023-08-21T05:41:35;71.97;;;43.58;;
48375;SDS011;34178;50.904;11.560;2023-08-21T05:44:01;88.18;;;44.80;;
48375;SDS011;34178;50.904;11.560;2023-08-21T05:46:27;68.85;;;45.28;;
48375;SDS011;34178;50.904;11.560;2023-08-21T05:48:53;76.25;;;46.28;;
48375;SDS011;34178;50.904;11.560;2023-08-21T05:51:18;98.53;;;47.15;;
48375;SDS011;34178;50.904;11.560;2023-08-21T05:53:44;88.63;;;44.17;;
48375;SDS011;34178;50.904;11.560;2023-08-21T05:56:10;95.63;;;45.95;;
48375;SDS011;34178;50.904;11.560;2023-08-21T05:58:35;76.03;;;42.45;;
48375;SDS011;34178;50.904;11.560;2023-08-21T06:01:01;54.50;;;41.45;;
48375;SDS011;34178;50.904;11.560;2023-08-21T06:03:27;52.65;;;39.65;;
48375;SDS011;34178;50.904;11.560;2023-08-21T06:05:52;52.70;;;38.42;;
48375;SDS011;34178;50.904;11.560;2023-08-21T06:08:18;49.85;;;39.33;;
48375;SDS011;34178;50.904;11.560;2023-08-21T06:10:43;43.97;;;36.20;;
48375;SDS011;34178;50.904;11.560;2023-08-21T06:13:09;45.47;;;35.55;;
48375;SDS011;34178;50.904;11.560;2023-08-21T06:15:35;42.47;;;33.42;;
48375;SDS011;34178;50.904;11.560;2023-08-21T06:18:00;38.83;;;33.17;;
48375;SDS011;34178;50.904;11.560;2023-08-21T06:20:26;35.65;;;30.27;;
48375;SDS011;34178;50.904;11.560;2023-08-21T06:22:52;39.47;;;33.10;;
48375;SDS011;34178;50.904;11.560;2023-08-21T06:25:17;36.80;;;31.63;;
48375;SDS011;34178;50.904;11.560;2023-08-21T06:27:44;35.55;;;30.08;;
48375;SDS011;34178;50.904;11.560;2023-08-21T06:30:10;36.33;;;31.27;;
48375;SDS011;34178;50.904;11.560;2023-08-21T06:32:36;36.55;;;30.70;;
48375;SDS011;34178;50.904;11.560;2023-08-21T06:35:01;33.05;;;28.08;;
48375;SDS011;34178;50.904;11.560;2023-08-21T06:37:27;34.33;;;29.38;;
48375;SDS011;34178;50.904;11.560;2023-08-21T06:39:53;40.03;;;30.98;;
48375;SDS011;34178;50.904;11.560;2023-08-21T06:42:18;44.10;;;35.17;;
48375;SDS011;34178;50.904;11.560;2023-08-21T06:44:44;42.63;;;34.03;;
48375;SDS011;34178;50.904;11.560;2023-08-21T06:47:10;46.28;;;35.20;;
48375;SDS011;34178;50.904;11.560;2023-08-21T06:49:35;49.90;;;35.60;;
48375;SDS011;34178;50.904;11.560;2023-08-21T06:52:01;52.50;;;37.20;;
48375;SDS011;34178;50.904;11.560;2023-08-21T06:54:28;50.83;;;37.97;;
48375;SDS011;34178;50.904;11.560;2023-08-21T06:56:53;48.00;;;36.85;;
48375;SDS011;34178;50.904;11.560;2023-08-21T06:59:19;43.80;;;33.65;;
48375;SDS011;34178;50.904;11.560;2023-08-21T07:01:44;53.67;;;35.20;;
48375;SDS011;34178;50.904;11.560;2023-08-21T07:04:10;39.97;;;31.52;;
48375;SDS011;34178;50.904;11.560;2023-08-21T07:06:35;45.28;;;33.03;;
48375;SDS011;34178;50.904;11.560;2023-08-21T07:09:01;34.92;;;27.85;;
48375;SDS011;34178;50.904;11.560;2023-08-21T07:11:27;37.17;;;29.77;;
48375;SDS011;34178;50.904;11.560;2023-08-21T07:13:52;40.72;;;30.75;;
48375;SDS011;34178;50.904;11.560;2023-08-21T07:16:18;40.97;;;30.17;;
48375;SDS011;34178;50.904;11.560;2023-08-21T07:18:44;34.67;;;29.70;;
48375;SDS011;34178;50.904;11.560;2023-08-21T07:21:09;32.50;;;26.48;;
48375;SDS011;34178;50.904;11.560;2023-08-21T07:23:35;36.83;;;28.52;;
48375;SDS011;34178;50.904;11.560;2023-08-21T07:26:01;33.60;;;25.88;;
48375;SDS011;34178;50.904;11.560;2023-08-21T07:28:27;31.27;;;24.15;;
48375;SDS011;34178;50.904;11.560;2023-08-21T07:30:56;25.60;;;21.30;;
48375;SDS011;34178;50.904;11.560;2023-08-21T07:33:22;26.45;;;23.25;;
48375;SDS011;34178;50.904;11.560;2023-08-21T07:35:56;24.08;;;20.63;;
48375;SDS011;34178;50.904;11.560;2023-08-21T07:38:30;26.90;;;20.40;;
48375;SDS011;34178;50.904;11.560;2023-08-21T07:41:06;25.85;;;21.63;;
48375;SDS011;34178;50.904;11.560;2023-08-21T07:43:35;24.55;;;19.42;;
48375;SDS011;34178;50.904;11.560;2023-08-21T07:46:02;24.33;;;20.58;;
48375;SDS011;34178;50.904;11.560;2023-08-21T07:48:32;22.17;;;17.95;;
48375;SDS011;34178;50.904;11.560;2023-08-21T07:50:58;22.88;;;18.52;;
48375;SDS011;34178;50.904;11.560;2023-08-21T07:53:24;19.95;;;16.55;;
48375;SDS011;34178;50.904;11.560;2023-08-21T07:55:50;25.98;;;18.58;;
48375;SDS011;34178;50.904;11.560;2023-08-21T07:58:16;22.00;;;16.02;;
48375;SDS011;34178;50.904;11.560;2023-08-21T08:00:42;20.02;;;15.88;;
48375;SDS011;34178;50.904;11.560;2023-08-21T08:03:08;19.88;;;15.63;;
48375;SDS011;34178;50.904;11.560;2023-08-21T08:05:35;18.50;;;14.95;;
48375;SDS011;34178;50.904;11.560;2023-08-21T08:08:01;20.02;;;14.65;;
48375;SDS011;34178;50.904;11.560;2023-08-21T08:10:27;20.23;;;15.55;;
48375;SDS011;34178;50.904;11.560;2023-08-21T08:12:53;22.13;;;16.35;;
48375;SDS011;34178;50.904;11.560;2023-08-21T08:15:19;20.55;;;15.85;;
48375;SDS011;34178;50.904;11.560;2023-08-21T08:17:45;19.00;;;15.32;;
48375;SDS011;34178;50.904;11.560;2023-08-21T08:20:11;19.85;;;14.60;;
48375;SDS011;34178;50.904;11.560;2023-08-21T08:22:37;20.08;;;14.38;;
48375;SDS011;34178;50.904;11.560;2023-08-21T08:25:03;18.20;;;14.18;;
48375;SDS011;34178;50.904;11.560;2023-08-21T08:27:31;17.73;;;14.20;;
48375;SDS011;34178;50.904;11.560;2023-08-21T08:29:57;16.40;;;13.73;;
48375;SDS011;34178;50.904;11.560;2023-08-21T08:32:23;17.33;;;13.20;;
48375;SDS011;34178;50.904;11.560;2023-08-21T08:34:48;15.85;;;13.25;;
48375;SDS011;34178;50.904;11.560;2023-08-21T08:37:14;13.68;;;11.43;;
48375;SDS011;34178;50.904;11.560;2023-08-21T08:39:40;20.23;;;11.80;;
48375;SDS011;34178;50.904;11.560;2023-08-21T08:42:05;13.27;;;11.18;;
48375;SDS011;34178;50.904;11.560;2023-08-21T08:44:34;19.00;;;11.30;;
48375;SDS011;34178;50.904;11.560;2023-08-21T08:47:02;12.73;;;10.07;;
48375;SDS011;34178;50.904;11.560;2023-08-21T08:49:28;14.70;;;10.18;;
48375;SDS011;34178;50.904;11.560;2023-08-21T08:51:55;14.02;;;10.02;;
48375;SDS011;34178;50.904;11.560;2023-08-21T08:54:22;15.35;;;10.35;;
48375;SDS011;34178;50.904;11.560;2023-08-21T08:56:50;15.20;;;9.98;;
48375;SDS011;34178;50.904;11.560;2023-08-21T08:59:16;13.13;;;9.40;;
48375;SDS011;34178;50.904;11.560;2023-08-21T09:01:42;12.50;;;9.63;;
48375;SDS011;34178;50.904;11.560;2023-08-21T09:04:08;11.02;;;8.88;;
48375;SDS011;34178;50.904;11.560;2023-08-21T09:06:35;13.73;;;9.55;;
48375;SDS011;34178;50.904;11.560;2023-08-21T09:09:00;11.30;;;9.32;;
48375;SDS011;34178;50.904;11.560;2023-08-21T09:11:26;16.60;;;10.05;;
48375;SDS011;34178;50.904;11.560;2023-08-21T09:13:53;12.95;;;9.23;;
48375;SDS011;34178;50.904;11.560;2023-08-21T09:16:20;14.50;;;9.90;;
48375;SDS011;34178;50.904;11.560;2023-08-21T09:18:47;12.82;;;8.50;;
48375;SDS011;34178;50.904;11.560;2023-08-21T09:21:17;15.20;;;8.93;;
48375;SDS011;34178;50.904;11.560;2023-08-21T09:23:44;11.30;;;7.85;;
48375;SDS011;34178;50.904;11.560;2023-08-21T09:26:11;11.90;;;8.50;;
48375;SDS011;34178;50.904;11.560;2023-08-21T09:28:46;13.27;;;8.75;;
48375;SDS011;34178;50.904;11.560;2023-08-21T09:31:13;15.43;;;9.35;;
48375;SDS011;34178;50.904;11.560;2023-08-21T09:33:39;12.70;;;8.40;;
48375;SDS011;34178;50.904;11.560;2023-08-21T09:36:05;24.95;;;9.77;;
48375;SDS011;34178;50.904;11.560;2023-08-21T09:38:33;14.80;;;9.75;;
48375;SDS011;34178;50.904;11.560;2023-08-21T09:41:00;15.65;;;8.93;;
48375;SDS011;34178;50.904;11.560;2023-08-21T09:43:26;15.48;;;9.35;;
48375;SDS011;34178;50.904;11.560;2023-08-21T09:45:55;12.52;;;8.52;;
48375;SDS011;34178;50.904;11.560;2023-08-21T09:48:26;14.85;;;8.82;;
48375;SDS011;34178;50.904;11.560;2023-08-21T09:50:52;14.90;;;9.20;;
48375;SDS011;34178;50.904;11.560;2023-08-21T09:53:20;13.77;;;8.52;;
48375;SDS011;34178;50.904;11.560;2023-08-21T09:55:47;15.67;;;9.03;;
48375;SDS011;34178;50.904;11.560;2023-08-21T09:58:17;11.80;;;8.82;;
48375;SDS011;34178;50.904;11.560;2023-08-21T10:00:44;11.98;;;8.75;;
48375;SDS011;34178;50.904;11.560;2023-08-21T10:03:13;14.23;;;9.38;;
48375;SDS011;34178;50.904;11.560;2023-08-21T10:05:40;12.20;;;8.68;;
48375;SDS011;34178;50.904;11.560;2023-08-21T10:08:07;12.07;;;9.15;;
48375;SDS011;34178;50.904;11.560;2023-08-21T10:10:34;12.48;;;8.10;;
48375;SDS011;34178;50.904;11.560;2023-08-21T10:13:03;11.60;;;8.40;;
48375;SDS011;34178;50.904;11.560;2023-08-21T10:15:31;11.73;;;8.65;;
48375;SDS011;34178;50.904;11.560;2023-08-21T10:20:44;11.88;;;8.25;;
48375;SDS011;34178;50.904;11.560;2023-08-21T10:23:10;13.40;;;8.85;;
48375;SDS011;34178;50.904;11.560;2023-08-21T10:25:59;11.38;;;8.57;;
48375;SDS011;34178;50.904;11.560;2023-08-21T10:34:34;14.30;;;9.07;;
48375;SDS011;34178;50.904;11.560;2023-08-21T10:47:23;13.23;;;10.02;;
48375;SDS011;34178;50.904;11.560;2023-08-21T10:49:52;15.43;;;9.80;;
48375;SDS011;34178;50.904;11.560;2023-08-21T10:52:33;11.13;;;8.55;;
48375;SDS011;34178;50.904;11.560;2023-08-21T10:55:06;11.88;;;9.35;;
48375;SDS011;34178;50.904;11.560;2023-08-21T10:57:34;12.38;;;9.15;;
48375;SDS011;34178;50.904;11.560;2023-08-21T11:00:04;13.40;;;8.82;;
48375;SDS011;34178;50.904;11.560;2023-08-21T11:02:38;14.90;;;8.95;;
48375;SDS011;34178;50.904;11.560;2023-08-21T11:05:04;11.75;;;9.18;;
48375;SDS011;34178;50.904;11.560;2023-08-21T11:07:39;11.50;;;8.82;;
48375;SDS011;34178;50.904;11.560;2023-08-21T11:10:08;11.80;;;8.90;;
48375;SDS011;34178;50.904;11.560;2023-08-21T11:12:35;11.52;;;9.43;;
48375;SDS011;34178;50.904;11.560;2023-08-21T11:15:00;10.93;;;8.50;;
48375;SDS011;34178;50.904;11.560;2023-08-21T11:17:27;11.65;;;8.90;;
48375;SDS011;34178;50.904;11.560;2023-08-21T11:19:52;10.85;;;8.13;;
48375;SDS011;34178;50.904;11.560;2023-08-21T11:22:18;11.80;;;8.07;;
48375;SDS011;34178;50.904;11.560;2023-08-21T11:24:45;12.73;;;8.65;;
48375;SDS011;34178;50.904;11.560;2023-08-21T11:27:12;11.32;;;8.60;;
48375;SDS011;34178;50.904;11.560;2023-08-21T11:29:40;11.10;;;8.50;;
48375;SDS011;34178;50.904;11.560;2023-08-21T11:32:08;10.63;;;8.55;;
48375;SDS011;34178;50.904;11.560;2023-08-21T11:34:38;13.13;;;8.77;;
48375;SDS011;34178;50.904;11.560;2023-08-21T11:37:04;10.80;;;8.93;;
48375;SDS011;34178;50.904;11.560;2023-08-21T11:39:43;11.15;;;8.35;;
48375;SDS011;34178;50.904;11.560;2023-08-21T11:42:36;14.77;;;9.32;;
48375;SDS011;34178;50.904;11.560;2023-08-21T11:45:03;11.68;;;8.13;;
48375;SDS011;34178;50.904;11.560;2023-08-21T11:47:32;13.45;;;7.85;;
48375;SDS011;34178;50.904;11.560;2023-08-21T11:50:06;10.50;;;7.55;;
48375;SDS011;34178;50.904;11.560;2023-08-21T11:52:34;11.90;;;7.03;;
48375;SDS011;34178;50.904;11.560;2023-08-21T11:55:06;11.77;;;7.85;;
48375;SDS011;34178;50.904;11.560;2023-08-21T11:57:34;10.18;;;7.68;;
48375;SDS011;34178;50.904;11.560;2023-08-21T11:59:59;16.85;;;8.30;;
48375;SDS011;34178;50.904;11.560;2023-08-21T12:02:26;12.60;;;7.63;;
48375;SDS011;34178;50.904;11.560;2023-08-21T12:04:53;13.68;;;8.15;;
48375;SDS011;34178;50.904;11.560;2023-08-21T12:07:30;10.57;;;7.35;;
48375;SDS011;34178;50.904;11.560;2023-08-21T12:09:59;13.07;;;7.70;;
48375;SDS011;34178;50.904;11.560;2023-08-21T12:12:24;9.15;;;7.05;;
48375;SDS011;34178;50.904;11.560;2023-08-21T12:14:50;8.73;;;6.97;;
48375;SDS011;34178;50.904;11.560;2023-08-21T12:17:16;10.50;;;7.32;;
48375;SDS011;34178;50.904;11.560;2023-08-21T12:19:42;10.75;;;7.35;;
48375;SDS011;34178;50.904;11.560;2023-08-21T12:22:08;10.20;;;7.22;;
48375;SDS011;34178;50.904;11.560;2023-08-21T12:24:34;9.48;;;6.75;;
48375;SDS011;34178;50.904;11.560;2023-08-21T12:27:02;10.32;;;7.18;;
48375;SDS011;34178;50.904;11.560;2023-08-21T12:29:28;12.65;;;7.22;;
48375;SDS011;34178;50.904;11.560;2023-08-21T12:31:54;10.15;;;6.50;;
48375;SDS011;34178;50.904;11.560;2023-08-21T12:34:20;8.27;;;6.15;;
48375;SDS011;34178;50.904;11.560;2023-08-21T12:36:45;8.23;;;6.20;;
48375;SDS011;34178;50.904;11.560;2023-08-21T12:39:11;9.93;;;6.53;;
48375;SDS011;34178;50.904;11.560;2023-08-21T12:41:37;9.70;;;6.22;;
48375;SDS011;34178;50.904;11.560;2023-08-21T12:44:03;8.70;;;5.97;;
48375;SDS011;34178;50.904;11.560;2023-08-21T12:46:29;9.10;;;6.88;;
48375;SDS011;34178;50.904;11.560;2023-08-21T12:48:58;9.88;;;6.10;;
48375;SDS011;34178;50.904;11.560;2023-08-21T12:51:26;11.30;;;6.13;;
48375;SDS011;34178;50.904;11.560;2023-08-21T12:53:52;10.15;;;6.88;;
48375;SDS011;34178;50.904;11.560;2023-08-21T12:56:18;9.07;;;6.15;;
48375;SDS011;34178;50.904;11.560;2023-08-21T12:58:43;11.07;;;7.43;;
48375;SDS011;34178;50.904;11.560;2023-08-21T13:01:10;10.15;;;6.65;;
48375;SDS011;34178;50.904;11.560;2023-08-21T13:03:37;8.90;;;6.80;;
48375;SDS011;34178;50.904;11.560;2023-08-21T13:06:03;8.77;;;6.68;;
48375;SDS011;34178;50.904;11.560;2023-08-21T13:08:29;9.23;;;6.10;;
48375;SDS011;34178;50.904;11.560;2023-08-21T13:10:55;10.15;;;6.32;;
48375;SDS011;34178;50.904;11.560;2023-08-21T13:13:20;7.93;;;5.72;;
48375;SDS011;34178;50.904;11.560;2023-08-21T13:15:46;10.50;;;6.07;;
48375;SDS011;34178;50.904;11.560;2023-08-21T13:18:11;10.18;;;6.10;;
48375;SDS011;34178;50.904;11.560;2023-08-21T13:20:39;9.57;;;5.57;;
48375;SDS011;34178;50.904;11.560;2023-08-21T13:23:06;12.95;;;5.75;;
48375;SDS011;34178;50.904;11.560;2023-08-21T13:25:32;9.75;;;5.63;;
48375;SDS011;34178;50.904;11.560;2023-08-21T13:28:00;9.43;;;5.93;;
48375;SDS011;34178;50.904;11.560;2023-08-21T13:30:27;8.50;;;5.07;;
48375;SDS011;34178;50.904;11.560;2023-08-21T13:32:52;7.97;;;5.20;;
48375;SDS011;34178;50.904;11.560;2023-08-21T13:35:19;7.22;;;4.88;;
48375;SDS011;34178;50.904;11.560;2023-08-21T13:37:45;8.25;;;5.32;;
48375;SDS011;34178;50.904;11.560;2023-08-21T13:40:11;7.70;;;4.53;;
48375;SDS011;34178;50.904;11.560;2023-08-21T13:42:39;8.40;;;4.50;;
48375;SDS011;34178;50.904;11.560;2023-08-21T13:45:09;6.78;;;5.03;;
48375;SDS011;34178;50.904;11.560;2023-08-21T13:47:42;7.35;;;4.45;;
48375;SDS011;34178;50.904;11.560;2023-08-21T13:50:10;7.28;;;4.80;;
48375;SDS011;34178;50.904;11.560;2023-08-21T13:52:36;7.45;;;5.00;;
48375;SDS011;34178;50.904;11.560;2023-08-21T13:55:03;9.30;;;4.47;;
48375;SDS011;34178;50.904;11.560;2023-08-21T13:57:29;7.60;;;4.70;;
48375;SDS011;34178;50.904;11.560;2023-08-21T13:59:57;6.82;;;4.45;;
48375;SDS011;34178;50.904;11.560;2023-08-21T14:02:26;7.22;;;4.65;;
48375;SDS011;34178;50.904;11.560;2023-08-21T14:04:51;7.28;;;4.88;;
48375;SDS011;34178;50.904;11.560;2023-08-21T14:07:17;7.00;;;4.50;;
48375;SDS011;34178;50.904;11.560;2023-08-21T14:09:43;6.68;;;4.50;;
48375;SDS011;34178;50.904;11.560;2023-08-21T14:12:09;7.03;;;4.40;;
48375;SDS011;34178;50.904;11.560;2023-08-21T14:14:35;8.90;;;4.60;;
48375;SDS011;34178;50.904;11.560;2023-08-21T14:17:02;9.88;;;4.10;;
48375;SDS011;34178;50.904;11.560;2023-08-21T14:19:28;8.32;;;4.28;;
48375;SDS011;34178;50.904;11.560;2023-08-21T14:21:54;7.63;;;4.47;;
48375;SDS011;34178;50.904;11.560;2023-08-21T14:24:22;7.65;;;4.10;;
48375;SDS011;34178;50.904;11.560;2023-08-21T14:26:48;7.88;;;4.30;;
48375;SDS011;34178;50.904;11.560;2023-08-21T14:29:13;9.10;;;4.75;;
48375;SDS011;34178;50.904;11.560;2023-08-21T14:31:39;10.20;;;4.60;;
48375;SDS011;34178;50.904;11.560;2023-08-21T14:34:04;8.00;;;4.65;;
48375;SDS011;34178;50.904;11.560;2023-08-21T14:36:30;8.25;;;3.80;;
48375;SDS011;34178;50.904;11.560;2023-08-21T14:38:55;6.20;;;3.78;;
48375;SDS011;34178;50.904;11.560;2023-08-21T14:41:21;6.10;;;3.90;;
48375;SDS011;34178;50.904;11.560;2023-08-21T14:43:47;5.85;;;4.28;;
48375;SDS011;34178;50.904;11.560;2023-08-21T14:46:12;6.15;;;4.20;;
48375;SDS011;34178;50.904;11.560;2023-08-21T14:48:38;7.50;;;4.20;;